sensor_id;sensor_type;location;lat;lon;timestamp;P1;durP1;ratioP1;P2;durP2;ratioP2
21727;SDS011;11026;50.560;17.852;2023-01-29T00:00:07;26.35;;;17.00;;
21727;SDS011;11026;50.560;17.852;2023-01-29T00:02:38;25.15;;;16.85;;
21727;SDS011;11026;50.560;17.852;2023-01-29T00:05:06;26.13;;;16.80;;
21727;SDS011;11026;50.560;17.852;2023-01-29T00:07:52;23.25;;;16.92;;
21727;SDS011;11026;50.560;17.852;2023-01-29T00:10:21;22.88;;;16.50;;
21727;SDS011;11026;50.560;17.852;2023-01-29T00:12:48;20.98;;;15.15;;
21727;SDS011;11026;50.560;17.852;2023-01-29T00:15:17;20.13;;;14.93;;
21727;SDS011;11026;50.560;17.852;2023-01-29T00:17:46;19.70;;;14.80;;
21727;SDS011;11026;50.560;17.852;2023-01-29T00:20:21;18.63;;;14.75;;
21727;SDS011;11026;50.560;17.852;2023-01-29T00:22:49;21.08;;;15.07;;
21727;SDS011;11026;50.560;17.852;2023-01-29T00:25:18;19.17;;;14.23;;
21727;SDS011;11026;50.560;17.852;2023-01-29T00:27:45;18.23;;;13.73;;
21727;SDS011;11026;50.560;17.852;2023-01-29T00:30:13;19.48;;;13.65;;
21727;SDS011;11026;50.560;17.852;2023-01-29T00:32:49;21.27;;;13.82;;
21727;SDS011;11026;50.560;17.852;2023-01-29T00:35:17;22.75;;;14.70;;
21727;SDS011;11026;50.560;17.852;2023-01-29T00:37:45;22.05;;;12.75;;
21727;SDS011;11026;50.560;17.852;2023-01-29T00:40:12;15.70;;;12.07;;
21727;SDS011;11026;50.560;17.852;2023-01-29T00:42:43;18.17;;;12.68;;
21727;SDS011;11026;50.560;17.852;2023-01-29T00:45:29;16.33;;;12.35;;
21727;SDS011;11026;50.560;17.852;2023-01-29T00:48:03;15.57;;;12.27;;
21727;SDS011;11026;50.560;17.852;2023-01-29T00:50:31;17.95;;;12.98;;
21727;SDS011;11026;50.560;17.852;2023-01-29T00:52:59;18.67;;;12.80;;
21727;SDS011;11026;50.560;17.852;2023-01-29T00:55:28;15.68;;;12.13;;
21727;SDS011;11026;50.560;17.852;2023-01-29T00:57:56;16.70;;;12.35;;
21727;SDS011;11026;50.560;17.852;2023-01-29T01:00:23;16.52;;;11.43;;
21727;SDS011;11026;50.560;17.852;2023-01-29T01:02:50;15.52;;;11.43;;
21727;SDS011;11026;50.560;17.852;2023-01-29T01:05:33;15.90;;;11.95;;
21727;SDS011;11026;50.560;17.852;2023-01-29T01:08:01;16.50;;;11.50;;
21727;SDS011;11026;50.560;17.852;2023-01-29T01:10:30;15.70;;;12.10;;
21727;SDS011;11026;50.560;17.852;2023-01-29T01:12:59;18.02;;;12.43;;
21727;SDS011;11026;50.560;17.852;2023-01-29T01:15:30;17.10;;;12.50;;
21727;SDS011;11026;50.560;17.852;2023-01-29T01:18:00;19.98;;;12.75;;
21727;SDS011;11026;50.560;17.852;2023-01-29T01:20:30;18.65;;;14.15;;
21727;SDS011;11026;50.560;17.852;2023-01-29T01:22:59;17.88;;;14.18;;
21727;SDS011;11026;50.560;17.852;2023-01-29T01:25:26;16.92;;;13.48;;
21727;SDS011;11026;50.560;17.852;2023-01-29T01:27:54;17.77;;;13.85;;
21727;SDS011;11026;50.560;17.852;2023-01-29T01:30:23;20.95;;;14.23;;
21727;SDS011;11026;50.560;17.852;2023-01-29T01:32:52;18.75;;;14.15;;
21727;SDS011;11026;50.560;17.852;2023-01-29T01:35:19;20.58;;;14.40;;
21727;SDS011;11026;50.560;17.852;2023-01-29T01:37:46;20.25;;;14.57;;
21727;SDS011;11026;50.560;17.852;2023-01-29T01:40:15;21.70;;;15.27;;
21727;SDS011;11026;50.560;17.852;2023-01-29T01:42:49;21.00;;;15.30;;
21727;SDS011;11026;50.560;17.852;2023-01-29T01:45:32;20.15;;;15.77;;
21727;SDS011;11026;50.560;17.852;2023-01-29T01:50:54;22.40;;;15.82;;
21727;SDS011;11026;50.560;17.852;2023-01-29T01:53:27;24.23;;;17.45;;
21727;SDS011;11026;50.560;17.852;2023-01-29T01:56:01;23.88;;;16.58;;
21727;SDS011;11026;50.560;17.852;2023-01-29T01:58:37;22.70;;;16.20;;
21727;SDS011;11026;50.560;17.852;2023-01-29T02:01:08;20.48;;;15.63;;
21727;SDS011;11026;50.560;17.852;2023-01-29T02:03:48;21.27;;;16.48;;
21727;SDS011;11026;50.560;17.852;2023-01-29T02:06:39;25.67;;;16.35;;
21727;SDS011;11026;50.560;17.852;2023-01-29T02:09:31;23.98;;;16.92;;
21727;SDS011;11026;50.560;17.852;2023-01-29T02:12:06;23.33;;;15.95;;
21727;SDS011;11026;50.560;17.852;2023-01-29T02:14:37;23.95;;;16.02;;
21727;SDS011;11026;50.560;17.852;2023-01-29T02:17:07;24.65;;;17.27;;
21727;SDS011;11026;50.560;17.852;2023-01-29T02:22:36;27.88;;;18.73;;
21727;SDS011;11026;50.560;17.852;2023-01-29T02:28:18;25.02;;;18.38;;
21727;SDS011;11026;50.560;17.852;2023-01-29T02:33:40;30.50;;;17.52;;
21727;SDS011;11026;50.560;17.852;2023-01-29T02:39:07;24.38;;;16.80;;
21727;SDS011;11026;50.560;17.852;2023-01-29T02:42:23;26.75;;;17.60;;
21727;SDS011;11026;50.560;17.852;2023-01-29T02:47:59;23.05;;;16.38;;
21727;SDS011;11026;50.560;17.852;2023-01-29T02:50:37;22.98;;;16.95;;
21727;SDS011;11026;50.560;17.852;2023-01-29T02:53:29;26.35;;;17.25;;
21727;SDS011;11026;50.560;17.852;2023-01-29T02:58:47;23.23;;;15.93;;
21727;SDS011;11026;50.560;17.852;2023-01-29T03:01:26;24.70;;;16.95;;
21727;SDS011;11026;50.560;17.852;2023-01-29T03:04:00;22.65;;;16.38;;
21727;SDS011;11026;50.560;17.852;2023-01-29T03:09:35;22.77;;;15.98;;
21727;SDS011;11026;50.560;17.852;2023-01-29T03:12:12;22.30;;;16.67;;
21727;SDS011;11026;50.560;17.852;2023-01-29T03:14:54;24.15;;;15.70;;
21727;SDS011;11026;50.560;17.852;2023-01-29T03:17:55;19.17;;;15.05;;
21727;SDS011;11026;50.560;17.852;2023-01-29T03:20:34;24.58;;;16.15;;
21727;SDS011;11026;50.560;17.852;2023-01-29T03:23:21;22.13;;;15.50;;
21727;SDS011;11026;50.560;17.852;2023-01-29T03:26:10;23.38;;;15.85;;
21727;SDS011;11026;50.560;17.852;2023-01-29T03:29:00;24.13;;;16.23;;
21727;SDS011;11026;50.560;17.852;2023-01-29T03:31:51;22.77;;;15.70;;
21727;SDS011;11026;50.560;17.852;2023-01-29T03:34:42;22.48;;;15.65;;
21727;SDS011;11026;50.560;17.852;2023-01-29T03:40:14;20.45;;;15.50;;
21727;SDS011;11026;50.560;17.852;2023-01-29T03:43:04;22.00;;;15.63;;
21727;SDS011;11026;50.560;17.852;2023-01-29T03:48:50;21.70;;;15.52;;
21727;SDS011;11026;50.560;17.852;2023-01-29T03:52:03;21.05;;;15.00;;
21727;SDS011;11026;50.560;17.852;2023-01-29T03:54:55;19.92;;;14.60;;
21727;SDS011;11026;50.560;17.852;2023-01-29T04:05:49;19.30;;;14.52;;
21727;SDS011;11026;50.560;17.852;2023-01-29T04:08:33;22.30;;;14.50;;
21727;SDS011;11026;50.560;17.852;2023-01-29T04:11:25;20.23;;;14.50;;
21727;SDS011;11026;50.560;17.852;2023-01-29T04:13:55;22.35;;;14.77;;
21727;SDS011;11026;50.560;17.852;2023-01-29T04:16:32;21.35;;;15.80;;
21727;SDS011;11026;50.560;17.852;2023-01-29T04:19:04;17.95;;;14.13;;
21727;SDS011;11026;50.560;17.852;2023-01-29T04:21:34;18.90;;;13.07;;
21727;SDS011;11026;50.560;17.852;2023-01-29T04:24:03;19.55;;;13.25;;
21727;SDS011;11026;50.560;17.852;2023-01-29T04:41:23;14.75;;;11.68;;
21727;SDS011;11026;50.560;17.852;2023-01-29T04:44:10;15.98;;;12.77;;
21727;SDS011;11026;50.560;17.852;2023-01-29T04:46:49;17.67;;;12.63;;
21727;SDS011;11026;50.560;17.852;2023-01-29T05:00:13;15.55;;;11.50;;
21727;SDS011;11026;50.560;17.852;2023-01-29T05:02:55;17.08;;;12.57;;
21727;SDS011;11026;50.560;17.852;2023-01-29T05:05:25;20.52;;;13.20;;
21727;SDS011;11026;50.560;17.852;2023-01-29T05:08:00;21.65;;;13.25;;
21727;SDS011;11026;50.560;17.852;2023-01-29T05:10:29;16.50;;;11.63;;
21727;SDS011;11026;50.560;17.852;2023-01-29T05:13:10;17.05;;;12.07;;
21727;SDS011;11026;50.560;17.852;2023-01-29T05:18:32;16.33;;;12.10;;
21727;SDS011;11026;50.560;17.852;2023-01-29T05:21:03;20.05;;;13.45;;
21727;SDS011;11026;50.560;17.852;2023-01-29T05:23:33;17.27;;;12.67;;
21727;SDS011;11026;50.560;17.852;2023-01-29T05:26:00;14.88;;;10.88;;
21727;SDS011;11026;50.560;17.852;2023-01-29T05:28:28;15.77;;;10.95;;
21727;SDS011;11026;50.560;17.852;2023-01-29T05:30:55;16.92;;;11.07;;
21727;SDS011;11026;50.560;17.852;2023-01-29T05:36:02;16.55;;;11.32;;
21727;SDS011;11026;50.560;17.852;2023-01-29T05:38:31;17.13;;;13.20;;
21727;SDS011;11026;50.560;17.852;2023-01-29T05:40:59;14.60;;;11.32;;
21727;SDS011;11026;50.560;17.852;2023-01-29T05:43:26;17.42;;;10.75;;
21727;SDS011;11026;50.560;17.852;2023-01-29T05:45:55;15.60;;;11.98;;
21727;SDS011;11026;50.560;17.852;2023-01-29T05:48:24;15.77;;;12.07;;
21727;SDS011;11026;50.560;17.852;2023-01-29T05:51:03;16.20;;;11.80;;
21727;SDS011;11026;50.560;17.852;2023-01-29T05:53:31;15.77;;;11.32;;
21727;SDS011;11026;50.560;17.852;2023-01-29T05:56:02;15.48;;;11.68;;
21727;SDS011;11026;50.560;17.852;2023-01-29T05:58:30;14.70;;;10.95;;
21727;SDS011;11026;50.560;17.852;2023-01-29T06:01:20;16.85;;;11.75;;
21727;SDS011;11026;50.560;17.852;2023-01-29T06:03:48;16.60;;;12.07;;
21727;SDS011;11026;50.560;17.852;2023-01-29T06:06:15;15.65;;;10.98;;
21727;SDS011;11026;50.560;17.852;2023-01-29T06:08:43;15.88;;;11.52;;
21727;SDS011;11026;50.560;17.852;2023-01-29T06:11:11;14.43;;;11.38;;
21727;SDS011;11026;50.560;17.852;2023-01-29T06:13:41;16.30;;;11.55;;
21727;SDS011;11026;50.560;17.852;2023-01-29T06:16:11;14.52;;;10.80;;
21727;SDS011;11026;50.560;17.852;2023-01-29T06:18:40;19.20;;;12.00;;
21727;SDS011;11026;50.560;17.852;2023-01-29T06:21:09;16.45;;;10.80;;
21727;SDS011;11026;50.560;17.852;2023-01-29T06:23:38;14.60;;;10.35;;
21727;SDS011;11026;50.560;17.852;2023-01-29T06:26:09;18.08;;;11.00;;
21727;SDS011;11026;50.560;17.852;2023-01-29T06:28:40;17.95;;;11.82;;
21727;SDS011;11026;50.560;17.852;2023-01-29T06:31:08;13.52;;;9.55;;
21727;SDS011;11026;50.560;17.852;2023-01-29T06:33:56;16.48;;;10.88;;
21727;SDS011;11026;50.560;17.852;2023-01-29T06:36:26;15.23;;;10.45;;
21727;SDS011;11026;50.560;17.852;2023-01-29T06:38:53;16.75;;;11.15;;
21727;SDS011;11026;50.560;17.852;2023-01-29T06:41:22;13.63;;;10.40;;
21727;SDS011;11026;50.560;17.852;2023-01-29T06:43:51;18.30;;;10.60;;
21727;SDS011;11026;50.560;17.852;2023-01-29T06:46:19;14.52;;;10.32;;
21727;SDS011;11026;50.560;17.852;2023-01-29T06:48:48;18.33;;;11.43;;
21727;SDS011;11026;50.560;17.852;2023-01-29T06:51:16;14.93;;;10.88;;
21727;SDS011;11026;50.560;17.852;2023-01-29T06:53:44;15.68;;;10.75;;
21727;SDS011;11026;50.560;17.852;2023-01-29T06:56:12;19.73;;;12.07;;
21727;SDS011;11026;50.560;17.852;2023-01-29T06:58:39;21.73;;;12.50;;
21727;SDS011;11026;50.560;17.852;2023-01-29T07:01:07;20.73;;;13.05;;
21727;SDS011;11026;50.560;17.852;2023-01-29T07:03:50;18.75;;;13.18;;
21727;SDS011;11026;50.560;17.852;2023-01-29T07:06:18;19.77;;;12.95;;
21727;SDS011;11026;50.560;17.852;2023-01-29T07:08:45;21.52;;;13.20;;
21727;SDS011;11026;50.560;17.852;2023-01-29T07:11:15;15.13;;;10.63;;
21727;SDS011;11026;50.560;17.852;2023-01-29T07:13:42;12.45;;;9.50;;
21727;SDS011;11026;50.560;17.852;2023-01-29T07:16:10;13.63;;;8.57;;
21727;SDS011;11026;50.560;17.852;2023-01-29T07:18:38;11.50;;;9.32;;
21727;SDS011;11026;50.560;17.852;2023-01-29T07:21:06;11.20;;;9.35;;
21727;SDS011;11026;50.560;17.852;2023-01-29T07:23:33;15.07;;;10.25;;
21727;SDS011;11026;50.560;17.852;2023-01-29T07:26:01;12.07;;;8.95;;
21727;SDS011;11026;50.560;17.852;2023-01-29T07:28:30;14.48;;;9.57;;
21727;SDS011;11026;50.560;17.852;2023-01-29T07:30:58;17.38;;;10.13;;
21727;SDS011;11026;50.560;17.852;2023-01-29T07:33:26;11.73;;;8.80;;
21727;SDS011;11026;50.560;17.852;2023-01-29T07:35:53;10.15;;;7.40;;
21727;SDS011;11026;50.560;17.852;2023-01-29T07:38:20;8.73;;;7.60;;
21727;SDS011;11026;50.560;17.852;2023-01-29T07:40:48;10.37;;;8.67;;
21727;SDS011;11026;50.560;17.852;2023-01-29T07:43:18;9.07;;;7.35;;
21727;SDS011;11026;50.560;17.852;2023-01-29T07:45:46;11.20;;;7.80;;
21727;SDS011;11026;50.560;17.852;2023-01-29T07:48:13;11.02;;;7.30;;
21727;SDS011;11026;50.560;17.852;2023-01-29T07:50:41;11.50;;;7.78;;
21727;SDS011;11026;50.560;17.852;2023-01-29T07:53:13;9.40;;;7.28;;
21727;SDS011;11026;50.560;17.852;2023-01-29T07:55:44;10.88;;;7.57;;
21727;SDS011;11026;50.560;17.852;2023-01-29T07:58:11;72.97;;;27.20;;
21727;SDS011;11026;50.560;17.852;2023-01-29T08:00:39;15.25;;;8.88;;
21727;SDS011;11026;50.560;17.852;2023-01-29T08:03:11;10.13;;;6.85;;
21727;SDS011;11026;50.560;17.852;2023-01-29T08:05:40;10.25;;;6.60;;
21727;SDS011;11026;50.560;17.852;2023-01-29T08:08:08;9.68;;;6.57;;
21727;SDS011;11026;50.560;17.852;2023-01-29T08:10:35;9.32;;;6.45;;
21727;SDS011;11026;50.560;17.852;2023-01-29T08:13:11;10.13;;;7.00;;
21727;SDS011;11026;50.560;17.852;2023-01-29T08:15:41;9.10;;;7.22;;
21727;SDS011;11026;50.560;17.852;2023-01-29T08:18:12;9.52;;;6.80;;
21727;SDS011;11026;50.560;17.852;2023-01-29T08:20:40;9.48;;;7.40;;
21727;SDS011;11026;50.560;17.852;2023-01-29T08:23:10;11.48;;;7.45;;
21727;SDS011;11026;50.560;17.852;2023-01-29T08:25:41;18.10;;;11.25;;
21727;SDS011;11026;50.560;17.852;2023-01-29T08:28:09;19.40;;;11.10;;
21727;SDS011;11026;50.560;17.852;2023-01-29T08:30:37;13.85;;;9.20;;
21727;SDS011;11026;50.560;17.852;2023-01-29T08:33:04;11.30;;;7.93;;
21727;SDS011;11026;50.560;17.852;2023-01-29T08:35:32;22.40;;;12.88;;
21727;SDS011;11026;50.560;17.852;2023-01-29T08:38:00;17.80;;;10.70;;
21727;SDS011;11026;50.560;17.852;2023-01-29T08:40:30;14.45;;;9.85;;
21727;SDS011;11026;50.560;17.852;2023-01-29T08:43:00;13.25;;;8.93;;
21727;SDS011;11026;50.560;17.852;2023-01-29T08:45:39;14.32;;;9.60;;
21727;SDS011;11026;50.560;17.852;2023-01-29T08:48:09;12.90;;;9.20;;
21727;SDS011;11026;50.560;17.852;2023-01-29T08:50:38;11.77;;;8.23;;
21727;SDS011;11026;50.560;17.852;2023-01-29T08:53:06;17.95;;;12.00;;
21727;SDS011;11026;50.560;17.852;2023-01-29T08:55:36;13.60;;;9.60;;
21727;SDS011;11026;50.560;17.852;2023-01-29T08:58:06;13.30;;;10.05;;
21727;SDS011;11026;50.560;17.852;2023-01-29T09:00:37;14.93;;;9.45;;
21727;SDS011;11026;50.560;17.852;2023-01-29T09:03:04;12.75;;;8.40;;
21727;SDS011;11026;50.560;17.852;2023-01-29T09:05:34;17.95;;;9.70;;
21727;SDS011;11026;50.560;17.852;2023-01-29T09:08:08;11.00;;;7.82;;
21727;SDS011;11026;50.560;17.852;2023-01-29T09:10:37;12.10;;;7.70;;
21727;SDS011;11026;50.560;17.852;2023-01-29T09:13:10;13.35;;;8.73;;
21727;SDS011;11026;50.560;17.852;2023-01-29T09:18:07;9.00;;;6.60;;
21727;SDS011;11026;50.560;17.852;2023-01-29T09:20:34;11.07;;;6.95;;
21727;SDS011;11026;50.560;17.852;2023-01-29T09:23:05;8.52;;;6.75;;
21727;SDS011;11026;50.560;17.852;2023-01-29T09:25:33;9.95;;;7.68;;
21727;SDS011;11026;50.560;17.852;2023-01-29T09:30:32;8.43;;;6.57;;
21727;SDS011;11026;50.560;17.852;2023-01-29T09:33:00;10.45;;;7.63;;
21727;SDS011;11026;50.560;17.852;2023-01-29T09:35:28;11.68;;;7.63;;
21727;SDS011;11026;50.560;17.852;2023-01-29T09:37:55;10.65;;;6.70;;
21727;SDS011;11026;50.560;17.852;2023-01-29T09:40:25;11.98;;;7.57;;
21727;SDS011;11026;50.560;17.852;2023-01-29T09:43:00;9.60;;;7.53;;
21727;SDS011;11026;50.560;17.852;2023-01-29T09:45:33;10.30;;;8.05;;
21727;SDS011;11026;50.560;17.852;2023-01-29T09:48:02;11.73;;;8.65;;
21727;SDS011;11026;50.560;17.852;2023-01-29T09:50:34;11.68;;;8.23;;
21727;SDS011;11026;50.560;17.852;2023-01-29T09:55:47;10.90;;;7.70;;
21727;SDS011;11026;50.560;17.852;2023-01-29T09:58:26;14.60;;;9.32;;
21727;SDS011;11026;50.560;17.852;2023-01-29T10:04:02;10.60;;;8.27;;
21727;SDS011;11026;50.560;17.852;2023-01-29T10:10:45;11.63;;;8.35;;
21727;SDS011;11026;50.560;17.852;2023-01-29T10:16:14;15.90;;;9.93;;
21727;SDS011;11026;50.560;17.852;2023-01-29T10:24:26;16.77;;;10.95;;
21727;SDS011;11026;50.560;17.852;2023-01-29T10:27:11;16.65;;;11.07;;
21727;SDS011;11026;50.560;17.852;2023-01-29T10:29:42;15.02;;;10.50;;
21727;SDS011;11026;50.560;17.852;2023-01-29T10:32:13;16.50;;;11.40;;
21727;SDS011;11026;50.560;17.852;2023-01-29T10:37:52;16.52;;;10.43;;
21727;SDS011;11026;50.560;17.852;2023-01-29T10:40:22;15.07;;;10.50;;
21727;SDS011;11026;50.560;17.852;2023-01-29T10:43:11;13.77;;;9.80;;
21727;SDS011;11026;50.560;17.852;2023-01-29T11:02:56;17.23;;;10.90;;
21727;SDS011;11026;50.560;17.852;2023-01-29T11:06:06;15.82;;;10.60;;
21727;SDS011;11026;50.560;17.852;2023-01-29T11:17:15;15.32;;;10.93;;
21727;SDS011;11026;50.560;17.852;2023-01-29T11:19:44;14.27;;;9.25;;
21727;SDS011;11026;50.560;17.852;2023-01-29T11:22:15;13.40;;;9.32;;
21727;SDS011;11026;50.560;17.852;2023-01-29T11:24:46;16.80;;;10.63;;
21727;SDS011;11026;50.560;17.852;2023-01-29T11:27:42;15.55;;;10.45;;
21727;SDS011;11026;50.560;17.852;2023-01-29T11:33:18;16.05;;;10.43;;
21727;SDS011;11026;50.560;17.852;2023-01-29T11:35:45;15.20;;;10.30;;
21727;SDS011;11026;50.560;17.852;2023-01-29T11:38:23;15.57;;;10.43;;
21727;SDS011;11026;50.560;17.852;2023-01-29T11:41:03;17.10;;;10.93;;
21727;SDS011;11026;50.560;17.852;2023-01-29T11:43:32;14.15;;;11.55;;
21727;SDS011;11026;50.560;17.852;2023-01-29T11:46:03;15.25;;;9.90;;
21727;SDS011;11026;50.560;17.852;2023-01-29T11:51:09;12.15;;;9.15;;
21727;SDS011;11026;50.560;17.852;2023-01-29T11:53:50;15.75;;;10.73;;
21727;SDS011;11026;50.560;17.852;2023-01-29T11:56:32;14.00;;;11.38;;
21727;SDS011;11026;50.560;17.852;2023-01-29T11:59:13;17.40;;;11.32;;
21727;SDS011;11026;50.560;17.852;2023-01-29T12:05:00;13.60;;;9.40;;
21727;SDS011;11026;50.560;17.852;2023-01-29T12:07:32;15.95;;;11.05;;
21727;SDS011;11026;50.560;17.852;2023-01-29T12:10:00;13.10;;;9.63;;
21727;SDS011;11026;50.560;17.852;2023-01-29T12:12:30;12.93;;;9.93;;
21727;SDS011;11026;50.560;17.852;2023-01-29T12:15:09;11.77;;;8.68;;
21727;SDS011;11026;50.560;17.852;2023-01-29T12:17:56;13.95;;;9.25;;
21727;SDS011;11026;50.560;17.852;2023-01-29T12:20:47;12.02;;;8.18;;
21727;SDS011;11026;50.560;17.852;2023-01-29T12:26:12;13.20;;;9.50;;
21727;SDS011;11026;50.560;17.852;2023-01-29T12:31:54;12.45;;;8.15;;
21727;SDS011;11026;50.560;17.852;2023-01-29T12:35:34;11.77;;;8.40;;
21727;SDS011;11026;50.560;17.852;2023-01-29T12:41:17;16.27;;;10.48;;
21727;SDS011;11026;50.560;17.852;2023-01-29T12:46:01;16.92;;;10.40;;
21727;SDS011;11026;50.560;17.852;2023-01-29T12:48:33;16.65;;;11.60;;
21727;SDS011;11026;50.560;17.852;2023-01-29T12:51:09;14.63;;;10.40;;
21727;SDS011;11026;50.560;17.852;2023-01-29T12:53:47;11.05;;;7.97;;
21727;SDS011;11026;50.560;17.852;2023-01-29T12:56:35;13.40;;;8.85;;
21727;SDS011;11026;50.560;17.852;2023-01-29T12:59:27;13.70;;;9.10;;
21727;SDS011;11026;50.560;17.852;2023-01-29T13:10:37;13.63;;;8.85;;
21727;SDS011;11026;50.560;17.852;2023-01-29T13:13:18;14.68;;;9.80;;
21727;SDS011;11026;50.560;17.852;2023-01-29T13:15:59;14.00;;;9.10;;
21727;SDS011;11026;50.560;17.852;2023-01-29T13:21:15;23.75;;;14.98;;
21727;SDS011;11026;50.560;17.852;2023-01-29T13:24:19;15.70;;;10.68;;
21727;SDS011;11026;50.560;17.852;2023-01-29T13:26:45;17.77;;;10.38;;
21727;SDS011;11026;50.560;17.852;2023-01-29T13:32:09;18.33;;;11.70;;
21727;SDS011;11026;50.560;17.852;2023-01-29T13:34:42;19.63;;;10.52;;
21727;SDS011;11026;50.560;17.852;2023-01-29T13:37:35;24.83;;;14.20;;
21727;SDS011;11026;50.560;17.852;2023-01-29T13:40:06;18.90;;;10.45;;
21727;SDS011;11026;50.560;17.852;2023-01-29T13:42:49;16.38;;;9.90;;
21727;SDS011;11026;50.560;17.852;2023-01-29T13:45:34;13.30;;;9.18;;
21727;SDS011;11026;50.560;17.852;2023-01-29T13:48:11;17.70;;;10.75;;
21727;SDS011;11026;50.560;17.852;2023-01-29T13:51:00;16.13;;;10.18;;
21727;SDS011;11026;50.560;17.852;2023-01-29T13:53:37;13.80;;;9.02;;
21727;SDS011;11026;50.560;17.852;2023-01-29T13:58:55;16.73;;;10.35;;
21727;SDS011;11026;50.560;17.852;2023-01-29T14:06:50;16.73;;;11.05;;
21727;SDS011;11026;50.560;17.852;2023-01-29T14:14:57;22.42;;;12.93;;
21727;SDS011;11026;50.560;17.852;2023-01-29T14:17:57;16.17;;;10.65;;
21727;SDS011;11026;50.560;17.852;2023-01-29T14:20:30;19.73;;;13.15;;
21727;SDS011;11026;50.560;17.852;2023-01-29T14:25:51;20.80;;;13.73;;
21727;SDS011;11026;50.560;17.852;2023-01-29T14:28:27;19.27;;;12.13;;
21727;SDS011;11026;50.560;17.852;2023-01-29T14:30:56;23.98;;;13.60;;
21727;SDS011;11026;50.560;17.852;2023-01-29T14:33:35;23.17;;;14.50;;
21727;SDS011;11026;50.560;17.852;2023-01-29T14:36:10;24.73;;;13.90;;
21727;SDS011;11026;50.560;17.852;2023-01-29T14:38:39;16.73;;;11.27;;
21727;SDS011;11026;50.560;17.852;2023-01-29T14:41:20;18.88;;;12.90;;
21727;SDS011;11026;50.560;17.852;2023-01-29T14:44:44;16.38;;;11.32;;
21727;SDS011;11026;50.560;17.852;2023-01-29T14:46:58;19.05;;;10.93;;
21727;SDS011;11026;50.560;17.852;2023-01-29T14:52:20;15.35;;;10.20;;
21727;SDS011;11026;50.560;17.852;2023-01-29T14:54:56;12.63;;;8.68;;
21727;SDS011;11026;50.560;17.852;2023-01-29T14:57:26;17.70;;;10.80;;
21727;SDS011;11026;50.560;17.852;2023-01-29T14:59:58;15.60;;;10.43;;
21727;SDS011;11026;50.560;17.852;2023-01-29T15:02:38;14.45;;;9.77;;
21727;SDS011;11026;50.560;17.852;2023-01-29T15:05:10;17.13;;;10.25;;
21727;SDS011;11026;50.560;17.852;2023-01-29T15:13:20;30.92;;;16.23;;
21727;SDS011;11026;50.560;17.852;2023-01-29T15:16:07;22.45;;;13.55;;
21727;SDS011;11026;50.560;17.852;2023-01-29T15:18:43;19.58;;;12.63;;
21727;SDS011;11026;50.560;17.852;2023-01-29T15:21:17;20.85;;;13.05;;
21727;SDS011;11026;50.560;17.852;2023-01-29T15:23:46;18.60;;;11.30;;
21727;SDS011;11026;50.560;17.852;2023-01-29T15:26:18;20.90;;;12.75;;
21727;SDS011;11026;50.560;17.852;2023-01-29T15:28:54;20.85;;;12.07;;
21727;SDS011;11026;50.560;17.852;2023-01-29T15:31:30;21.95;;;12.05;;
21727;SDS011;11026;50.560;17.852;2023-01-29T15:34:01;21.23;;;13.35;;
21727;SDS011;11026;50.560;17.852;2023-01-29T15:36:33;23.05;;;14.05;;
21727;SDS011;11026;50.560;17.852;2023-01-29T15:41:46;32.10;;;16.95;;
21727;SDS011;11026;50.560;17.852;2023-01-29T15:44:15;31.10;;;16.35;;
21727;SDS011;11026;50.560;17.852;2023-01-29T15:46:54;29.90;;;16.33;;
21727;SDS011;11026;50.560;17.852;2023-01-29T15:52:02;21.98;;;12.60;;
21727;SDS011;11026;50.560;17.852;2023-01-29T15:54:33;20.63;;;11.35;;
21727;SDS011;11026;50.560;17.852;2023-01-29T15:57:01;15.50;;;9.68;;
21727;SDS011;11026;50.560;17.852;2023-01-29T15:59:31;16.10;;;10.68;;
21727;SDS011;11026;50.560;17.852;2023-01-29T16:05:14;19.13;;;11.00;;
21727;SDS011;11026;50.560;17.852;2023-01-29T16:07:45;15.65;;;10.60;;
21727;SDS011;11026;50.560;17.852;2023-01-29T16:10:17;16.65;;;11.13;;
21727;SDS011;11026;50.560;17.852;2023-01-29T16:12:48;19.42;;;11.95;;
21727;SDS011;11026;50.560;17.852;2023-01-29T16:15:27;19.90;;;12.18;;
21727;SDS011;11026;50.560;17.852;2023-01-29T16:17:58;19.98;;;12.68;;
21727;SDS011;11026;50.560;17.852;2023-01-29T16:20:33;22.52;;;13.65;;
21727;SDS011;11026;50.560;17.852;2023-01-29T16:23:14;24.38;;;13.75;;
21727;SDS011;11026;50.560;17.852;2023-01-29T16:25:49;23.20;;;14.48;;
21727;SDS011;11026;50.560;17.852;2023-01-29T16:28:18;21.80;;;13.27;;
21727;SDS011;11026;50.560;17.852;2023-01-29T16:30:46;21.80;;;12.80;;
21727;SDS011;11026;50.560;17.852;2023-01-29T16:33:27;19.65;;;12.68;;
21727;SDS011;11026;50.560;17.852;2023-01-29T16:36:12;21.98;;;13.02;;
21727;SDS011;11026;50.560;17.852;2023-01-29T16:38:55;20.35;;;12.65;;
21727;SDS011;11026;50.560;17.852;2023-01-29T16:41:29;20.38;;;12.45;;
21727;SDS011;11026;50.560;17.852;2023-01-29T16:46:49;21.98;;;13.70;;
21727;SDS011;11026;50.560;17.852;2023-01-29T16:50:19;19.92;;;13.13;;
21727;SDS011;11026;50.560;17.852;2023-01-29T16:55:24;29.52;;;15.07;;
21727;SDS011;11026;50.560;17.852;2023-01-29T16:57:58;25.55;;;14.88;;
21727;SDS011;11026;50.560;17.852;2023-01-29T17:00:33;24.73;;;14.25;;
21727;SDS011;11026;50.560;17.852;2023-01-29T17:03:05;26.25;;;14.10;;
21727;SDS011;11026;50.560;17.852;2023-01-29T17:05:35;22.05;;;14.70;;
21727;SDS011;11026;50.560;17.852;2023-01-29T17:08:05;26.60;;;15.75;;
21727;SDS011;11026;50.560;17.852;2023-01-29T17:10:45;25.58;;;15.65;;
21727;SDS011;11026;50.560;17.852;2023-01-29T17:18:52;29.15;;;16.55;;
21727;SDS011;11026;50.560;17.852;2023-01-29T17:21:23;29.95;;;17.20;;
21727;SDS011;11026;50.560;17.852;2023-01-29T17:23:55;26.92;;;15.73;;
21727;SDS011;11026;50.560;17.852;2023-01-29T17:26:24;31.73;;;17.83;;
21727;SDS011;11026;50.560;17.852;2023-01-29T17:28:58;30.02;;;17.85;;
21727;SDS011;11026;50.560;17.852;2023-01-29T17:31:26;26.30;;;16.20;;
21727;SDS011;11026;50.560;17.852;2023-01-29T17:33:56;28.85;;;17.13;;
21727;SDS011;11026;50.560;17.852;2023-01-29T17:36:24;29.98;;;17.63;;
21727;SDS011;11026;50.560;17.852;2023-01-29T17:38:53;33.88;;;19.33;;
21727;SDS011;11026;50.560;17.852;2023-01-29T17:41:23;36.95;;;20.63;;
21727;SDS011;11026;50.560;17.852;2023-01-29T17:43:56;38.80;;;21.25;;
21727;SDS011;11026;50.560;17.852;2023-01-29T17:46:25;35.00;;;20.65;;
21727;SDS011;11026;50.560;17.852;2023-01-29T17:48:54;36.50;;;20.80;;
21727;SDS011;11026;50.560;17.852;2023-01-29T17:51:23;32.85;;;17.88;;
21727;SDS011;11026;50.560;17.852;2023-01-29T17:53:51;36.67;;;20.65;;
21727;SDS011;11026;50.560;17.852;2023-01-29T17:56:22;32.83;;;20.00;;
21727;SDS011;11026;50.560;17.852;2023-01-29T17:58:57;34.28;;;19.92;;
21727;SDS011;11026;50.560;17.852;2023-01-29T18:04:16;32.92;;;19.42;;
21727;SDS011;11026;50.560;17.852;2023-01-29T18:06:47;31.98;;;19.73;;
21727;SDS011;11026;50.560;17.852;2023-01-29T18:09:19;37.08;;;20.85;;
21727;SDS011;11026;50.560;17.852;2023-01-29T18:11:48;31.67;;;19.00;;
21727;SDS011;11026;50.560;17.852;2023-01-29T18:14:17;31.90;;;18.23;;